Loisir ou Compétition : Rejoignez un Club de la Fédération

Résultats

RASSEMBLEMENT MINIMES BIATHLON

CORRENCON

SPR Hommes

Jury de Compétition

Délégué Technique :
CUIER PHILIPPE ()
D.T. Adjoint :
VASSALLO CHRISTOPHE (MB)
Dir. Epreuve :
NIOGRET CORINNE (LY)
Chef Pas de Tir :
 

Caractéristiques de la Piste

Piste :
 
Distance :
5 km
Point Haut :
 
Point Bas :
 
Montée Tot. :
 
Montée Max. :
 
Homologation :
 

Pénalité Appliquée :
 
Coefficient :
 

Catégorie :
MIN
Style :
L
Type de Tir :
C-C- - - -
Clt Dos Clt/Cat Code An Nom Prénom Com Club Temps Pena Tps Tot Ecart Points
Classés
1 152 1/MIN FFS2613979 1995 JACQUELIN EMILIEN DA CS VILLARD 14:53.9 0-0-0-0 14:53.9 00:00.0
2 124 2/MIN FFS2640322 1995 BENOIT ANTHONY MJ CHAUX DOMBIE 15:17.3 1-0-0-0 15:17.3 00:23.4
3 128 3/MIN FFS2623864 1995 HUILLIER YOHAN DA CS VILLARD 15:21.2 0-0-0-0 15:21.2 00:27.3
4 94 4/MIN FFS2602843 1995 COLIN CLEMENT MJ CHAUX DOMBIE 16:04.4 0-0-0-0 16:04.4 01:10.5
5 127 5/MIN FFS2622817 1995 GAILLARD ANTONIN MB LES GETS S.C 16:13.8 0-0-0-0 16:13.8 01:19.9
6 121 6/MIN FFS2627788 1995 BRENAS PABLO DA CO SEPT LAUX 16:22.8 1-3-0-0 16:22.8 01:28.9
7 138 7/MIN FFS2614419 1995 LYAUDET HUGO LY US CORMARANC 16:28.0 0-3-0-0 16:28.0 01:34.1
8 118 8/MIN FFS2625842 1995 MASSET HUGO AP SERRE CHEVAL 16:33.6 0-0-0-0 16:33.6 01:39.7
9 181 9/MIN FFS2632789 1995 LOPEZ THIBAULT MB CS CHAMONIX 16:40.9 0-0-0-0 16:40.9 01:47.0
10 145 10/MIN FFS2627240 1995 VACHET YANN AP MTGVE V.CLAR 16:44.3 0-0-0-0 16:44.3 01:50.4
11 133 11/MIN FFS2637961 1996 [I]MISSILLIER Rémi MB SC GD BORNAN 16:45.6 0-0-0-0 16:45.6 01:51.7
12 149 12/MIN FFS2613760 1995 XOLIN GAETAN MV US VENTRON 16:45.7 0-0-0-0 16:45.7 01:51.8
13 193 13/MIN FFS2639627 1995 BLONDEAU THOMAS MJ ST LAURENT 16:51.5 0-1-0-0 16:51.5 01:57.6
14 114 14/MIN FFS2618095 1995 MUNOZ GUILLAUME DA CS VILLARD 16:52.2 1-1-0-0 16:52.2 01:58.3
15 161 15/MIN FFS2622233 1995 LABONNE PIERRE DA CS VILLARD 17:04.2 2-0-0-0 17:04.2 02:10.3
16 109 16/MIN FFS2631662 1995 HUMBERTCLAUDE SAMUEL MV LA BRESSAUDE 17:07.6 2-0-0-0 17:07.6 02:13.7
17 120 17/MIN FFS2602892 1995 [I]RECOCHE LÉO PE SC NORDIC 66 17:11.7 0-1-0-0 17:11.7 02:17.8
18 129 18/MIN FFS2617802 1995 BOIS FARINAUD TANGUY DA SNGR OISANS 17:17.8 3-3-0-0 17:17.8 02:23.9
19 202 19/MIN FFS2632314 1995 [I]BERGER ZACCHARIE MB CS CHAMONIX 17:19.5 0-2-0-0 17:19.5 02:25.6
20 142 20/MIN FFS2618707 1995 VERKINDT ANTOINE DA CO SEPT LAUX 17:21.1 2-0-0-0 17:21.1 02:27.2
21 205 21/MIN FFS2632253 1995 [I]PERRILLAT Alexis MB SC GD BORNAN 17:21.7 2-0-0-0 17:21.7 02:27.8
22 192 22/MIN FFS2642962 1996 LAPIERRE JULES DA SN CHARTROUS 17:22.3 0-1-0-0 17:22.3 02:28.4
23 102 23/MIN FFS2630523 1995 BUCHE ANTHONY AU SC DE BESSE 17:22.4 1-0-0-0 17:22.4 02:28.5
24 176 24/MIN FFS2613600 1995 SCHIAVI BASTIEN MJ PREMANON SC 17:24.5 2-0-0-0 17:24.5 02:30.6
25 104 25/MIN FFS2613994 1995 PERRET ELOI LY CS VALROMEY 17:24.6 0-1-0-0 17:24.6 02:30.7
26 165 26/MIN FFS2632013 1995 POMEL Charles MB VILLARD/BOEG 17:25.9 0-3-0-0 17:25.9 02:32.0
27 199 27/MIN FFS2602205 1995 CHAUVIN VALENTIN MJ HT JURA SKI 17:27.3 0-2-0-0 17:27.3 02:33.4
28 168 28/MIN FFS2626180 1995 PELLE JOSSELIN DA CO SEPT LAUX 17:31.0 1-0-0-0 17:31.0 02:37.1
29 194 29/MIN FFS2634006 1995 VACHER SYLVAIN DA US AUTRANNAI 17:32.2 0-2-0-0 17:32.2 02:38.3
30 185 30/MIN FFS2620094 1995 PERSONNAZ EMILIEN SA ES BESSANS 17:32.4 0-2-0-0 17:32.4 02:38.5
31 108 31/MIN FFS2632543 1995 [I]QUINTIN Loïc MB SC GD BORNAN 17:33.4 0-1-0-0 17:33.4 02:39.5
32 170 32/MIN FFS2623254 1995 BAZILE NICOLAS PE SC NORDIC 66 17:44.6 0-0-0-0 17:44.6 02:50.7
33 136 33/MIN FFS2625624 1996 [I]CHAVANNES LOUIS PE SC NORDIC 66 17:47.0 1-0-0-0 17:47.0 02:53.1
34 141 34/MIN FFS2633322 1995 MARIN JEREMY DA SN CHARTROUS 17:47.2 0-0-0-0 17:47.2 02:53.3
35 139 35/MIN FFS2638068 1995 GUYON BAPTISTE MJ A.S MOUTHE 17:48.5 3-0-0-0 17:48.5 02:54.6
36 123 36/MIN FFS2631961 1996 GUSTIN PIERRE MV VAGNEY ROCHE 17:54.9 0-0-0-0 17:54.9 03:01.0
37 110 37/MIN FFS2631537 1995 GOURIER NICOLAS MB SC D'AGY 17:56.7 0-0-0-0 17:56.7 03:02.8
38 153 38/MIN FFS2632131 1995 PERRILLAT MONET Guillaume MB SC GD BORNAN 17:58.9 3-2-0-0 17:58.9 03:05.0
39 163 39/MIN FFS2616477 1995 PUIG OLIVIER PE SC NORDIC 66 17:59.1 1-1-0-0 17:59.1 03:05.2
40 167 40/MIN FFS2626902 1995 ROSSERO PIERRE MJ HT JURA SKI 18:00.0 1-1-0-0 18:00.0 03:06.1
41 105 41/MIN FFS2639065 1995 AUGER ANTOINE MJ SC ABBAYE 18:01.1 0-1-0-0 18:01.1 03:07.2
42 177 42/MIN FFS2631503 1995 GIRAUD QUENTIN DA SNGR OISANS 18:03.2 2-2-0-0 18:03.2 03:09.3
43 201 43/MIN FFS2644101 1995 GUY PIERRE MJ A.S MOUTHE 18:03.7 1-0-0-0 18:03.7 03:09.8
44 169 44/MIN FFS2620882 1996 MICHEL ANTOINE LY SC LOMPNES 18:08.5 1-0-0-0 18:08.5 03:14.6
45 117 45/MIN FFS2619949 1996 GAYDON ADRIEN MB LES GETS S.C 18:11.6 1-0-0-0 18:11.6 03:17.7
46 113 46/MIN FFS2617996 1996 COTTET PUINEL FELIX MB LES GETS S.C 18:13.8 2-2-0-0 18:13.8 03:19.9
47 203 47/MIN FFS2619838 1995 GUEGUENIAT KARAN DA US AUTRANNAI 18:17.7 1-1-0-0 18:17.7 03:23.8
48 98 48/MIN FFS2633031 1996 DAMARIUS JULIEN AP SERRE CHEVAL 18:23.7 0-0-0-0 18:23.7 03:29.8
49 157 49/MIN FFS2644100 1996 GUY ROMAIN MJ A.S MOUTHE 18:23.8 1-1-0-0 18:23.8 03:29.9
50 92 50/MIN FFS2640323 1995 BAUDOUX REMI MJ CHAUX DOMBIE 18:26.4 3-0-0-0 18:26.4 03:32.5
51 195 51/MIN FFS2632231 1995 SCHWARTZ LOUIS DA CS VILLARD 18:26.6 2-1-0-0 18:26.6 03:32.7
52 191 52/MIN FFS2630524 1995 BUCHE KEVIN AU SC DE BESSE 18:27.0 0-2-0-0 18:27.0 03:33.1
53 131 53/MIN FFS2631632 1996 PERRIN GANIER NEILO MV LA BRESSAUDE 18:28.0 0-1-0-0 18:28.0 03:34.1
54 156 54/MIN FFS2623672 1995 MEAUXSOONE FELIX DA CS VILLARD 18:32.4 1-0-0-0 18:32.4 03:38.5
55 144 55/MIN FFS2619303 1996 CARDENOUX VALENTIN AU SC DE BESSE 18:33.6 0-0-0-0 18:33.6 03:39.7
56 100 56/MIN FFS2627634 1995 CHEVALLIER ALEXANDRE AP LES TROLLS 18:33.7 0-0-0-0 18:33.7 03:39.8
57 183 57/MIN FFS2620176 1996 AUGER TANGUY LY SC BRENOD 18:38.5 1-2-0-0 18:38.5 03:44.6
58 162 58/MIN FFS2625100 1996 LORIER EMILIEN DA CO SEPT LAUX 18:40.8 3-3-0-0 18:40.8 03:46.9
59 159 59/MIN FFS2627394 1996 ECHALARD JULIEN MJ SKI ROUSSES 18:41.4 0-1-0-0 18:41.4 03:47.5
60 164 60/MIN FFS2604706 1996 MARET LOUIS MB CS CHAMONIX 18:41.8 0-0-0-0 18:41.8 03:47.9
61 188 61/MIN FFS2624225 1995 SOLIGNAC JULIEN AU SC DE BESSE 18:44.9 1-2-0-0 18:44.9 03:51.0
62 115 62/MIN FFS2637959 1996 BERGERET Hippolyte MB SC GD BORNAN 18:51.1 1-1-0-0 18:51.1 03:57.2
63 99 63/MIN FFS2625799 1995 RATEL LENY MJ PREMANON SC 18:51.9 0-4-0-0 18:51.9 03:58.0
64 111 64/MIN FFS2632541 1995 [I]ABEL Benoît MB SC GD BORNAN 18:53.9 1-1-0-0 18:53.9 04:00.0
65 132 65/MIN FFS2627462 1996 LOCATELLI ALEXIS DA SA MEAUDRAIS 18:55.3 0-1-0-0 18:55.3 04:01.4
66 155 66/MIN FFS2622555 1995 REGARD LUDOVIC PE SC NORDIC 66 18:56.9 0-3-0-0 18:56.9 04:03.0
67 122 67/MIN FFS2632128 1995 MISSILLIER Julien MB SC GD BORNAN 18:57.2 1-3-0-0 18:57.2 04:03.3
68 160 68/MIN FFS2616644 1996 [I]DEZWAZIERE Théo MB SC GD BORNAN 19:02.3 3-1-0-0 19:02.3 04:08.4
69 119 69/MIN FFS2619835 1995 BARON LUCAS DA US AUTRANNAI 19:13.6 3-1-0-0 19:13.6 04:19.7
70 125 70/MIN FFS2614110 1996 [I]CLARET-TOURNIER LUC MB CS CHAMONIX 19:14.8 0-1-0-0 19:14.8 04:20.9
71 112 71/MIN FFS2632313 1995 BERGER JULES MB CS CHAMONIX 19:15.0 1-3-0-0 19:15.0 04:21.1
72 106 72/MIN FFS2600826 1995 [I]RUZAND KÉVIN DA US AUTRANNAI 19:20.0 0-2-0-0 19:20.0 04:26.1
73 107 73/MIN FFS2618208 1995 DOUILLARD THOMAS PE SC NORDIC 66 19:20.2 2-0-0-0 19:20.2 04:26.3
74 146 74/MIN FFS2639616 1995 MESNIER PAUL MJ A.S MOUTHE 19:21.1 0-1-0-0 19:21.1 04:27.2
75 95 75/MIN FFS2632124 1995 BASTARD ROSSET Victorien MB SC GD BORNAN 19:24.9 3-3-0-0 19:24.9 04:31.0
76 135 76/MIN FFS2638562 1995 NICOLET PAUL MJ A.S MOUTHE 19:29.0 3-0-0-0 19:29.0 04:35.1
77 204 77/MIN FFS2603115 1995 [I]PERRISSIN FABERT Constant MB SC GD BORNAN 19:29.5 2-1-0-0 19:29.5 04:35.6
78 196 78/MIN FFS2631642 1996 ROUX BAPTISTE DA SN CHARTROUS 19:30.4 0-0-0-0 19:30.4 04:36.5
79 151 79/MIN FFS2637733 1995 CAILHOL XAVIER MJ DAMPRICHARD 19:31.7 1-0-0-0 19:31.7 04:37.8
80 91 80/MIN FFS2602152 1995 PIJOURLET LOUIS DA CO SEPT LAUX 19:32.9 3-3-0-0 19:32.9 04:39.0
81 173 81/MIN FFS2632125 1995 COCHET Charles MB SC GD BORNAN 19:33.6 1-2-0-0 19:33.6 04:39.7
82 172 82/MIN FFS2613466 1995 PERRET ROBIN LY CS VALROMEY 19:34.1 1-1-0-0 19:34.1 04:40.2
83 171 83/MIN FFS2625964 1995 ROZAN AXEL AP SERRE CHEVAL 19:43.1 2-2-0-0 19:43.1 04:49.2
84 150 84/MIN FFS2600804 1995 AIRIAU GABRIEL DA US AUTRANNAI 19:45.2 1-2-0-0 19:45.2 04:51.3
85 154 85/MIN FFS2623642 1996 THONON VALENTIN DA SN CHARTROUS 19:48.0 1-0-0-0 19:48.0 04:54.1
86 174 86/MIN FFS2639625 1995 MICHEL EDGAR MJ ST LAURENT 19:49.0 1-0-0-0 19:49.0 04:55.1
86 184 86/MIN FFS2642032 1996 GREGOIRE JEAN LOUP DA SN CHARTROUS 19:49.0 1-1-0-0 19:49.0 04:55.1
88 140 88/MIN FFS2629746 1995 PROFIT GASPARD DA GUC GRENOBLE 19:49.3 1-1-0-0 19:49.3 04:55.4
89 178 89/MIN FFS2636569 1995 ROGER MAXIME AU BOURBOULE 19:55.2 2-1-0-0 19:55.2 05:01.3
90 101 90/MIN FFS2629474 1995 PHILIP PIERRE EMILE AP SERRE CHEVAL 19:57.7 1-1-0-0 19:57.7 05:03.8
91 126 91/MIN FFS2637932 1996 GUIOT HUGO MB SC D'AGY 19:58.2 1-0-0-0 19:58.2 05:04.3
92 148 92/MIN FFS2623639 1996 CLUGNET JAMES DA SN CHARTROUS 20:05.7 3-0-0-0 20:05.7 05:11.8
93 180 93/MIN FFS2605425 1996 GENIN JULES DA CS VILLARD 20:10.0 2-4-0-0 20:10.0 05:16.1
94 130 94/MIN FFS2636374 1995 BOISSEAU ROMAIN DA CS VILLARD 20:24.3 0-1-0-0 20:24.3 05:30.4
95 158 95/MIN FFS2617048 1995 MARTIN NOE AP MTGVE V.CLAR 20:25.6 2-1-0-0 20:25.6 05:31.7
96 179 96/MIN FFS2625795 1995 RAMBORGHI THOMAS LY SC LOMPNES 20:28.3 0-1-0-0 20:28.3 05:34.4
97 143 97/MIN FFS2644200 1995 BRUMELOT ZAK DA GUC GRENOBLE 20:55.2 1-0-0-0 20:55.2 06:01.3
98 116 98/MIN FFS2637962 1996 PERRILLAT Alexandre MB SC GD BORNAN 20:56.0 3-0-0-0 20:56.0 06:02.1
99 93 99/MIN FFS2628174 1996 DOZ QUENTIN PE SC NORDIC 66 20:58.5 4-0-0-0 20:58.5 06:04.6
99 182 99/MIN FFS2627151 1996 PLANTIER FLORENT LY CS VALROMEY 20:58.5 0-4-0-0 20:58.5 06:04.6
101 175 101/MIN FFS2644181 1996 CHOPIN MANU DA GUC GRENOBLE 21:06.0 0-1-0-0 21:06.0 06:12.1
102 187 102/MIN FFS2600735 1996 DANIEL AURELIEN DA CS VILLARD 21:08.0 0-4-0-0 21:08.0 06:14.1
103 134 103/MIN FFS2630101 1995 PEYRON REMI AP LES TROLLS 21:08.1 2-0-0-0 21:08.1 06:14.2
104 198 104/MIN FFS2617625 1996 MOTTIER Victor MB SC GD BORNAN 21:37.0 3-4-0-0 21:37.0 06:43.1
105 186 105/MIN FFS2623511 1996 EMIN AXEL LY US CORMARANC 21:37.3 2-1-0-0 21:37.3 06:43.4
106 137 106/MIN FFS2619841 1996 MARGUET CORENTIN DA US AUTRANNAI 22:00.8 0-2-0-0 22:00.8 07:06.9
107 166 107/MIN FFS2637732 1995 CAILHOL THEOPHILE MJ DAMPRICHARD 22:10.1 4-3-0-0 22:10.1 07:16.2
108 103 108/MIN FFS2616479 1996 [I]PLANES CLÉMENT PE SC NORDIC 66 22:19.3 3-1-0-0 22:19.3 07:25.4
109 200 109/MIN FFS2620174 1996 ZONCA THEAU LY SC BRENOD 22:37.7 3-2-0-0 22:37.7 07:43.8
110 189 110/MIN FFS2615200 1996 BONNARDEL AYMERIC AP SERRE CHEVAL 23:09.4 0-5-0-0 23:09.4 08:15.5
111 190 111/MIN FFS2631186 1996 CAN ANTOINE PE SC NORDIC 66 23:30.8 2-0-0-0 23:30.8 08:36.9
112 97 112/MIN FFS2627825 1995 OTTAVI PEROLIN DA GUC GRENOBLE 24:06.1 4-0-0-0 24:06.1 09:12.2
113 197 113/MIN FFS2648192 1996 DINH THOMAS DA GUC GRENOBLE 27:25.3 2-3-0-0 27:25.3 12:31.4